sensor_id;sensor_type;location;lat;lon;timestamp;pressure;altitude;pressure_sealevel;temperature;humidity
27613;BME280;15036;48.094;-1.690;2023-03-22T00:01:12;100539.81;;;16.75;58.31
27613;BME280;15036;48.094;-1.690;2023-03-22T00:03:38;100536.66;;;16.83;57.51
27613;BME280;15036;48.094;-1.690;2023-03-22T00:06:04;100539.13;;;16.56;58.16
27613;BME280;15036;48.094;-1.690;2023-03-22T00:08:29;100535.16;;;16.52;58.73
27613;BME280;15036;48.094;-1.690;2023-03-22T00:10:55;100532.81;;;16.84;57.71
27613;BME280;15036;48.094;-1.690;2023-03-22T00:13:20;100536.16;;;16.23;59.45
27613;BME280;15036;48.094;-1.690;2023-03-22T00:15:46;100537.22;;;16.57;58.69
27613;BME280;15036;48.094;-1.690;2023-03-22T00:18:14;100525.56;;;16.94;57.65
27613;BME280;15036;48.094;-1.690;2023-03-22T00:20:53;100533.91;;;17.11;57.21
27613;BME280;15036;48.094;-1.690;2023-03-22T00:23:20;100521.78;;;16.84;58.06
27613;BME280;15036;48.094;-1.690;2023-03-22T00:25:46;100524.31;;;16.34;59.42
27613;BME280;15036;48.094;-1.690;2023-03-22T00:28:12;100515.53;;;16.88;58.10
27613;BME280;15036;48.094;-1.690;2023-03-22T00:30:38;100515.50;;;16.60;59.29
27613;BME280;15036;48.094;-1.690;2023-03-22T00:33:04;100503.44;;;16.89;57.64
27613;BME280;15036;48.094;-1.690;2023-03-22T00:35:30;100501.91;;;17.26;57.17
27613;BME280;15036;48.094;-1.690;2023-03-22T00:37:55;100501.19;;;16.75;58.72
27613;BME280;15036;48.094;-1.690;2023-03-22T00:40:21;100496.06;;;16.67;59.16
27613;BME280;15036;48.094;-1.690;2023-03-22T00:42:47;100491.03;;;16.75;58.88
27613;BME280;15036;48.094;-1.690;2023-03-22T00:45:12;100488.22;;;16.87;58.57
27613;BME280;15036;48.094;-1.690;2023-03-22T00:47:38;100490.25;;;16.91;58.37
27613;BME280;15036;48.094;-1.690;2023-03-22T00:50:05;100482.47;;;16.48;59.54
27613;BME280;15036;48.094;-1.690;2023-03-22T00:52:30;100483.81;;;16.23;60.04
27613;BME280;15036;48.094;-1.690;2023-03-22T00:54:56;100476.34;;;17.31;57.42
27613;BME280;15036;48.094;-1.690;2023-03-22T00:57:22;100474.03;;;16.95;58.26
27613;BME280;15036;48.094;-1.690;2023-03-22T00:59:48;100470.28;;;17.01;57.96
27613;BME280;15036;48.094;-1.690;2023-03-22T01:02:14;100463.44;;;17.03;57.69
27613;BME280;15036;48.094;-1.690;2023-03-22T01:04:42;100464.19;;;17.15;57.50
27613;BME280;15036;48.094;-1.690;2023-03-22T01:07:14;100467.13;;;17.09;57.77
27613;BME280;15036;48.094;-1.690;2023-03-22T01:09:51;100445.28;;;17.07;57.87
27613;BME280;15036;48.094;-1.690;2023-03-22T01:12:18;100451.25;;;17.32;56.83
27613;BME280;15036;48.094;-1.690;2023-03-22T01:14:43;100440.03;;;17.06;57.31
27613;BME280;15036;48.094;-1.690;2023-03-22T01:17:09;100444.28;;;17.13;57.22
27613;BME280;15036;48.094;-1.690;2023-03-22T01:19:36;100436.16;;;16.62;58.38
27613;BME280;15036;48.094;-1.690;2023-03-22T01:22:03;100432.91;;;17.10;57.47
27613;BME280;15036;48.094;-1.690;2023-03-22T01:24:28;100422.69;;;16.77;58.14
27613;BME280;15036;48.094;-1.690;2023-03-22T01:26:54;100413.66;;;16.65;58.65
27613;BME280;15036;48.094;-1.690;2023-03-22T01:29:20;100421.22;;;17.03;57.77
27613;BME280;15036;48.094;-1.690;2023-03-22T01:31:46;100423.22;;;17.07;57.88
27613;BME280;15036;48.094;-1.690;2023-03-22T01:34:11;100415.56;;;16.65;59.01
27613;BME280;15036;48.094;-1.690;2023-03-22T01:36:36;100405.50;;;16.87;58.51
27613;BME280;15036;48.094;-1.690;2023-03-22T01:39:02;100391.25;;;16.62;59.23
27613;BME280;15036;48.094;-1.690;2023-03-22T01:41:28;100399.06;;;16.53;59.15
27613;BME280;15036;48.094;-1.690;2023-03-22T01:44:13;100393.25;;;16.66;59.04
27613;BME280;15036;48.094;-1.690;2023-03-22T01:46:44;100386.03;;;17.10;57.71
27613;BME280;15036;48.094;-1.690;2023-03-22T01:49:21;100386.53;;;16.90;58.09
27613;BME280;15036;48.094;-1.690;2023-03-22T01:51:49;100388.03;;;16.98;58.30
27613;BME280;15036;48.094;-1.690;2023-03-22T01:54:18;100379.94;;;17.24;57.09
27613;BME280;15036;48.094;-1.690;2023-03-22T01:56:45;100375.78;;;17.05;57.59
27613;BME280;15036;48.094;-1.690;2023-03-22T01:59:13;100381.19;;;17.00;58.00
27613;BME280;15036;48.094;-1.690;2023-03-22T02:01:39;100367.03;;;17.47;56.61
27613;BME280;15036;48.094;-1.690;2023-03-22T02:04:14;100364.19;;;17.42;56.87
27613;BME280;15036;48.094;-1.690;2023-03-22T02:06:41;100367.81;;;16.92;57.89
27613;BME280;15036;48.094;-1.690;2023-03-22T02:09:11;100354.06;;;16.64;58.67
27613;BME280;15036;48.094;-1.690;2023-03-22T02:11:42;100368.16;;;16.51;59.42
27613;BME280;15036;48.094;-1.690;2023-03-22T02:23:03;100337.41;;;16.87;57.90
27613;BME280;15036;48.094;-1.690;2023-03-22T02:25:55;100323.69;;;16.92;57.69
27613;BME280;15036;48.094;-1.690;2023-03-22T02:28:49;100321.91;;;16.53;58.83
27613;BME280;15036;48.094;-1.690;2023-03-22T02:45:18;100309.16;;;16.97;57.84
27613;BME280;15036;48.094;-1.690;2023-03-22T02:48:05;100301.06;;;16.74;57.75
27613;BME280;15036;48.094;-1.690;2023-03-22T02:50:40;100303.53;;;17.08;56.93
27613;BME280;15036;48.094;-1.690;2023-03-22T02:55:59;100308.06;;;16.98;57.17
27613;BME280;15036;48.094;-1.690;2023-03-22T02:58:32;100297.28;;;16.96;57.32
27613;BME280;15036;48.094;-1.690;2023-03-22T03:01:03;100282.91;;;16.94;57.24
27613;BME280;15036;48.094;-1.690;2023-03-22T03:03:30;100292.94;;;17.00;57.12
27613;BME280;15036;48.094;-1.690;2023-03-22T03:05:59;100289.28;;;16.78;57.66
27613;BME280;15036;48.094;-1.690;2023-03-22T03:08:27;100280.88;;;16.40;58.85
27613;BME280;15036;48.094;-1.690;2023-03-22T03:10:53;100280.75;;;17.34;56.26
27613;BME280;15036;48.094;-1.690;2023-03-22T03:13:20;100283.34;;;16.86;57.60
27613;BME280;15036;48.094;-1.690;2023-03-22T03:15:49;100280.00;;;17.01;57.03
27613;BME280;15036;48.094;-1.690;2023-03-22T03:18:36;100284.38;;;17.35;56.12
27613;BME280;15036;48.094;-1.690;2023-03-22T03:26:53;100276.66;;;16.82;57.69
27613;BME280;15036;48.094;-1.690;2023-03-22T03:29:49;100274.22;;;17.02;57.49
27613;BME280;15036;48.094;-1.690;2023-03-22T03:32:39;100268.03;;;17.33;56.45
27613;BME280;15036;48.094;-1.690;2023-03-22T03:35:13;100289.81;;;17.13;57.10
27613;BME280;15036;48.094;-1.690;2023-03-22T03:37:50;100281.94;;;17.22;57.05
27613;BME280;15036;48.094;-1.690;2023-03-22T03:40:25;100265.09;;;17.18;57.08
27613;BME280;15036;48.094;-1.690;2023-03-22T03:42:54;100271.81;;;17.27;57.06
27613;BME280;15036;48.094;-1.690;2023-03-22T03:45:22;100267.13;;;16.90;58.22
27613;BME280;15036;48.094;-1.690;2023-03-22T03:47:48;100269.72;;;16.96;57.51
27613;BME280;15036;48.094;-1.690;2023-03-22T03:50:22;100265.31;;;16.95;57.87
27613;BME280;15036;48.094;-1.690;2023-03-22T03:52:48;100267.13;;;16.90;58.09
27613;BME280;15036;48.094;-1.690;2023-03-22T03:55:14;100271.47;;;17.02;57.58
27613;BME280;15036;48.094;-1.690;2023-03-22T03:57:39;100270.03;;;17.00;57.60
27613;BME280;15036;48.094;-1.690;2023-03-22T04:00:05;100268.13;;;17.39;56.80
27613;BME280;15036;48.094;-1.690;2023-03-22T04:02:31;100269.50;;;17.19;57.55
27613;BME280;15036;48.094;-1.690;2023-03-22T04:04:57;100270.97;;;17.05;57.43
27613;BME280;15036;48.094;-1.690;2023-03-22T04:07:22;100262.66;;;17.44;56.90
27613;BME280;15036;48.094;-1.690;2023-03-22T04:09:48;100261.38;;;16.91;57.96
27613;BME280;15036;48.094;-1.690;2023-03-22T04:12:13;100252.94;;;16.81;58.97
27613;BME280;15036;48.094;-1.690;2023-03-22T04:14:38;100260.19;;;17.25;57.75
27613;BME280;15036;48.094;-1.690;2023-03-22T04:17:07;100259.28;;;17.37;56.79
27613;BME280;15036;48.094;-1.690;2023-03-22T04:19:32;100246.78;;;17.12;57.99
27613;BME280;15036;48.094;-1.690;2023-03-22T04:21:58;100248.06;;;16.88;58.42
27613;BME280;15036;48.094;-1.690;2023-03-22T04:24:24;100252.09;;;16.81;59.02
27613;BME280;15036;48.094;-1.690;2023-03-22T04:26:50;100254.34;;;16.84;58.95
27613;BME280;15036;48.094;-1.690;2023-03-22T04:29:16;100254.66;;;17.04;58.27
27613;BME280;15036;48.094;-1.690;2023-03-22T04:31:42;100248.59;;;16.85;58.77
27613;BME280;15036;48.094;-1.690;2023-03-22T04:34:07;100252.38;;;17.39;57.73
27613;BME280;15036;48.094;-1.690;2023-03-22T04:36:35;100256.72;;;16.75;59.72
27613;BME280;15036;48.094;-1.690;2023-03-22T04:39:05;100256.66;;;17.08;58.58
27613;BME280;15036;48.094;-1.690;2023-03-22T04:41:32;100249.56;;;16.96;58.81
27613;BME280;15036;48.094;-1.690;2023-03-22T04:43:58;100246.59;;;16.81;59.46
27613;BME280;15036;48.094;-1.690;2023-03-22T04:46:31;100258.63;;;16.75;59.69
27613;BME280;15036;48.094;-1.690;2023-03-22T04:48:57;100252.91;;;16.48;61.21
27613;BME280;15036;48.094;-1.690;2023-03-22T04:51:23;100255.94;;;16.63;61.31
27613;BME280;15036;48.094;-1.690;2023-03-22T04:53:48;100253.28;;;16.85;60.50
27613;BME280;15036;48.094;-1.690;2023-03-22T04:56:14;100256.44;;;16.60;60.98
27613;BME280;15036;48.094;-1.690;2023-03-22T04:58:40;100269.66;;;16.91;60.55
27613;BME280;15036;48.094;-1.690;2023-03-22T05:01:08;100265.13;;;16.85;60.88
27613;BME280;15036;48.094;-1.690;2023-03-22T05:03:34;100262.59;;;16.84;60.76
27613;BME280;15036;48.094;-1.690;2023-03-22T05:06:02;100260.94;;;16.99;60.94
27613;BME280;15036;48.094;-1.690;2023-03-22T05:08:31;100252.44;;;16.84;61.15
27613;BME280;15036;48.094;-1.690;2023-03-22T05:10:57;100248.34;;;17.25;59.93
27613;BME280;15036;48.094;-1.690;2023-03-22T05:13:25;100240.53;;;17.17;60.15
27613;BME280;15036;48.094;-1.690;2023-03-22T05:15:51;100236.25;;;17.09;60.13
27613;BME280;15036;48.094;-1.690;2023-03-22T05:18:21;100234.19;;;17.00;60.66
27613;BME280;15036;48.094;-1.690;2023-03-22T05:20:48;100238.13;;;17.25;60.39
27613;BME280;15036;48.094;-1.690;2023-03-22T05:23:15;100230.16;;;17.07;60.54
27613;BME280;15036;48.094;-1.690;2023-03-22T05:25:45;100241.16;;;16.69;61.52
27613;BME280;15036;48.094;-1.690;2023-03-22T05:28:12;100228.94;;;16.98;60.76
27613;BME280;15036;48.094;-1.690;2023-03-22T05:30:41;100230.69;;;16.88;61.50
27613;BME280;15036;48.094;-1.690;2023-03-22T05:33:07;100226.97;;;16.61;61.88
27613;BME280;15036;48.094;-1.690;2023-03-22T05:35:35;100232.28;;;16.84;61.76
27613;BME280;15036;48.094;-1.690;2023-03-22T05:38:02;100224.22;;;16.61;61.70
27613;BME280;15036;48.094;-1.690;2023-03-22T05:40:27;100219.69;;;16.71;61.92
27613;BME280;15036;48.094;-1.690;2023-03-22T05:42:53;100224.38;;;16.54;62.46
27613;BME280;15036;48.094;-1.690;2023-03-22T05:45:19;100219.06;;;17.02;60.76
27613;BME280;15036;48.094;-1.690;2023-03-22T05:47:45;100210.91;;;16.91;61.16
27613;BME280;15036;48.094;-1.690;2023-03-22T05:50:13;100215.13;;;16.98;60.94
27613;BME280;15036;48.094;-1.690;2023-03-22T05:52:39;100206.34;;;16.63;61.96
27613;BME280;15036;48.094;-1.690;2023-03-22T05:55:07;100202.63;;;16.91;61.55
27613;BME280;15036;48.094;-1.690;2023-03-22T05:57:33;100208.63;;;17.26;60.13
27613;BME280;15036;48.094;-1.690;2023-03-22T05:59:58;100201.66;;;16.47;62.22
27613;BME280;15036;48.094;-1.690;2023-03-22T06:02:24;100176.09;;;16.35;62.82
27613;BME280;15036;48.094;-1.690;2023-03-22T06:04:50;100199.13;;;16.79;61.63
27613;BME280;15036;48.094;-1.690;2023-03-22T06:07:19;100190.28;;;16.77;61.50
27613;BME280;15036;48.094;-1.690;2023-03-22T06:09:45;100184.50;;;17.16;60.39
27613;BME280;15036;48.094;-1.690;2023-03-22T06:12:11;100189.56;;;17.03;61.20
27613;BME280;15036;48.094;-1.690;2023-03-22T06:14:40;100173.91;;;16.70;62.02
27613;BME280;15036;48.094;-1.690;2023-03-22T06:17:05;100177.25;;;16.72;62.11
27613;BME280;15036;48.094;-1.690;2023-03-22T06:19:30;100181.91;;;16.88;61.99
27613;BME280;15036;48.094;-1.690;2023-03-22T06:21:56;100180.88;;;16.94;61.95
27613;BME280;15036;48.094;-1.690;2023-03-22T06:24:21;100192.09;;;16.88;61.48
27613;BME280;15036;48.094;-1.690;2023-03-22T06:26:47;100196.22;;;16.69;62.04
27613;BME280;15036;48.094;-1.690;2023-03-22T06:29:12;100187.38;;;17.05;61.00
27613;BME280;15036;48.094;-1.690;2023-03-22T06:31:38;100210.41;;;16.44;62.77
27613;BME280;15036;48.094;-1.690;2023-03-22T06:34:04;100241.91;;;16.81;62.22
27613;BME280;15036;48.094;-1.690;2023-03-22T06:36:30;100257.03;;;16.95;62.00
27613;BME280;15036;48.094;-1.690;2023-03-22T06:38:56;100260.78;;;16.89;61.93
27613;BME280;15036;48.094;-1.690;2023-03-22T06:41:23;100230.50;;;17.11;61.88
27613;BME280;15036;48.094;-1.690;2023-03-22T06:43:48;100255.63;;;16.60;62.68
27613;BME280;15036;48.094;-1.690;2023-03-22T06:46:14;100253.03;;;17.24;61.16
27613;BME280;15036;48.094;-1.690;2023-03-22T06:48:39;100239.19;;;16.36;63.78
27613;BME280;15036;48.094;-1.690;2023-03-22T06:51:05;100257.75;;;16.41;63.45
27613;BME280;15036;48.094;-1.690;2023-03-22T06:53:30;100246.09;;;16.67;63.06
27613;BME280;15036;48.094;-1.690;2023-03-22T06:55:56;100229.78;;;16.99;62.13
27613;BME280;15036;48.094;-1.690;2023-03-22T06:58:21;100236.03;;;17.11;61.70
27613;BME280;15036;48.094;-1.690;2023-03-22T07:00:47;100250.50;;;17.01;61.85
27613;BME280;15036;48.094;-1.690;2023-03-22T07:03:13;100250.97;;;17.15;61.35
27613;BME280;15036;48.094;-1.690;2023-03-22T07:05:38;100253.53;;;17.21;61.17
27613;BME280;15036;48.094;-1.690;2023-03-22T07:08:04;100248.91;;;17.05;61.56
27613;BME280;15036;48.094;-1.690;2023-03-22T07:10:29;100256.44;;;16.93;61.39
27613;BME280;15036;48.094;-1.690;2023-03-22T07:12:54;100262.44;;;16.90;61.57
27613;BME280;15036;48.094;-1.690;2023-03-22T07:15:20;100271.28;;;17.09;61.12
27613;BME280;15036;48.094;-1.690;2023-03-22T07:17:49;100259.63;;;16.85;62.05
27613;BME280;15036;48.094;-1.690;2023-03-22T07:20:16;100251.03;;;17.20;61.14
27613;BME280;15036;48.094;-1.690;2023-03-22T07:22:41;100238.72;;;16.56;61.26
27613;BME280;15036;48.094;-1.690;2023-03-22T07:25:07;100236.81;;;17.11;60.11
27613;BME280;15036;48.094;-1.690;2023-03-22T07:27:32;100244.28;;;17.11;59.69
27613;BME280;15036;48.094;-1.690;2023-03-22T07:29:58;100238.97;;;17.48;59.12
27613;BME280;15036;48.094;-1.690;2023-03-22T07:32:23;100256.44;;;16.93;59.63
27613;BME280;15036;48.094;-1.690;2023-03-22T07:34:48;100256.72;;;17.52;57.85
27613;BME280;15036;48.094;-1.690;2023-03-22T07:37:14;100244.31;;;17.32;58.01
27613;BME280;15036;48.094;-1.690;2023-03-22T07:39:39;100248.38;;;17.47;57.54
27613;BME280;15036;48.094;-1.690;2023-03-22T07:42:05;100255.34;;;17.32;57.95
27613;BME280;15036;48.094;-1.690;2023-03-22T07:44:30;100248.81;;;17.39;57.96
27613;BME280;15036;48.094;-1.690;2023-03-22T07:46:56;100246.59;;;16.81;59.55
27613;BME280;15036;48.094;-1.690;2023-03-22T07:49:21;100247.84;;;17.11;58.78
27613;BME280;15036;48.094;-1.690;2023-03-22T07:51:47;100252.00;;;17.30;58.34
27613;BME280;15036;48.094;-1.690;2023-03-22T07:54:13;100253.34;;;17.28;58.55
27613;BME280;15036;48.094;-1.690;2023-03-22T07:56:38;100254.91;;;17.02;59.40
27613;BME280;15036;48.094;-1.690;2023-03-22T07:59:04;100244.00;;;17.29;58.87
27613;BME280;15036;48.094;-1.690;2023-03-22T08:01:29;100253.34;;;17.28;58.88
27613;BME280;15036;48.094;-1.690;2023-03-22T08:03:54;100263.66;;;17.76;57.79
27613;BME280;15036;48.094;-1.690;2023-03-22T08:06:20;100256.41;;;17.70;58.08
27613;BME280;15036;48.094;-1.690;2023-03-22T08:08:46;100249.25;;;16.92;60.30
27613;BME280;15036;48.094;-1.690;2023-03-22T08:11:11;100234.22;;;17.43;59.09
27613;BME280;15036;48.094;-1.690;2023-03-22T08:13:37;100244.41;;;16.99;60.25
27613;BME280;15036;48.094;-1.690;2023-03-22T08:16:03;100231.13;;;17.56;59.28
27613;BME280;15036;48.094;-1.690;2023-03-22T08:18:29;100228.06;;;17.36;59.45
27613;BME280;15036;48.094;-1.690;2023-03-22T08:20:56;100229.22;;;17.57;58.83
27613;BME280;15036;48.094;-1.690;2023-03-22T08:23:23;100228.91;;;17.37;59.25
27613;BME280;15036;48.094;-1.690;2023-03-22T08:25:49;100224.88;;;17.66;58.30
27613;BME280;15036;48.094;-1.690;2023-03-22T08:28:15;100218.16;;;17.35;59.39
27613;BME280;15036;48.094;-1.690;2023-03-22T08:30:45;100219.34;;;17.44;58.77
27613;BME280;15036;48.094;-1.690;2023-03-22T08:33:12;100225.50;;;17.29;58.86
27613;BME280;15036;48.094;-1.690;2023-03-22T08:35:38;100227.00;;;17.37;58.60
27613;BME280;15036;48.094;-1.690;2023-03-22T08:38:04;100235.44;;;17.95;57.12
27613;BME280;15036;48.094;-1.690;2023-03-22T08:40:29;100229.97;;;17.52;57.87
27613;BME280;15036;48.094;-1.690;2023-03-22T08:42:55;100230.66;;;17.86;57.09
27613;BME280;15036;48.094;-1.690;2023-03-22T08:45:21;100221.72;;;17.79;57.05
27613;BME280;15036;48.094;-1.690;2023-03-22T08:47:46;100229.66;;;17.97;56.07
27613;BME280;15036;48.094;-1.690;2023-03-22T08:50:12;100221.69;;;17.52;57.03
27613;BME280;15036;48.094;-1.690;2023-03-22T08:52:37;100238.56;;;17.17;57.84
27613;BME280;15036;48.094;-1.690;2023-03-22T08:55:04;100216.50;;;17.56;56.77
27613;BME280;15036;48.094;-1.690;2023-03-22T08:57:29;100228.28;;;17.73;56.69
27613;BME280;15036;48.094;-1.690;2023-03-22T08:59:55;100219.72;;;17.96;56.13
27613;BME280;15036;48.094;-1.690;2023-03-22T09:02:22;100214.41;;;17.46;57.45
27613;BME280;15036;48.094;-1.690;2023-03-22T09:04:48;100225.25;;;17.31;57.47
27613;BME280;15036;48.094;-1.690;2023-03-22T09:07:13;100212.50;;;17.47;57.58
27613;BME280;15036;48.094;-1.690;2023-03-22T09:09:39;100219.66;;;17.48;57.86
27613;BME280;15036;48.094;-1.690;2023-03-22T09:12:05;100219.97;;;17.94;56.72
27613;BME280;15036;48.094;-1.690;2023-03-22T09:14:30;100213.00;;;17.65;56.69
27613;BME280;15036;48.094;-1.690;2023-03-22T09:16:56;100195.81;;;17.58;56.98
27613;BME280;15036;48.094;-1.690;2023-03-22T09:19:21;100221.66;;;18.22;55.59
27613;BME280;15036;48.094;-1.690;2023-03-22T09:21:47;100224.28;;;17.85;56.55
27613;BME280;15036;48.094;-1.690;2023-03-22T09:24:12;100215.56;;;18.25;55.61
27613;BME280;15036;48.094;-1.690;2023-03-22T09:26:39;100223.81;;;17.93;56.22
27613;BME280;15036;48.094;-1.690;2023-03-22T09:29:04;100218.34;;;17.72;56.53
27613;BME280;15036;48.094;-1.690;2023-03-22T09:31:29;100213.31;;;17.90;55.98
27613;BME280;15036;48.094;-1.690;2023-03-22T09:33:55;100216.63;;;18.19;55.60
27613;BME280;15036;48.094;-1.690;2023-03-22T09:36:20;100224.19;;;17.54;57.79
27613;BME280;15036;48.094;-1.690;2023-03-22T09:38:47;100220.19;;;17.45;58.42
27613;BME280;15036;48.094;-1.690;2023-03-22T09:41:24;100221.41;;;16.94;60.41
27613;BME280;15036;48.094;-1.690;2023-03-22T09:43:59;100227.38;;;16.69;61.94
27613;BME280;15036;48.094;-1.690;2023-03-22T09:46:31;100217.34;;;17.40;60.64
27613;BME280;15036;48.094;-1.690;2023-03-22T09:49:00;100217.94;;;17.42;60.87
27613;BME280;15036;48.094;-1.690;2023-03-22T09:51:36;100220.34;;;17.55;60.58
27613;BME280;15036;48.094;-1.690;2023-03-22T09:54:43;100222.25;;;17.32;61.95
27613;BME280;15036;48.094;-1.690;2023-03-22T09:57:12;100204.34;;;16.75;63.96
27613;BME280;15036;48.094;-1.690;2023-03-22T10:05:42;100222.28;;;17.16;64.73
27613;BME280;15036;48.094;-1.690;2023-03-22T10:08:17;100218.16;;;17.35;64.04
27613;BME280;15036;48.094;-1.690;2023-03-22T10:10:48;100216.25;;;16.81;65.73
27613;BME280;15036;48.094;-1.690;2023-03-22T10:15:49;100201.72;;;16.85;66.43
27613;BME280;15036;48.094;-1.690;2023-03-22T10:18:22;100216.69;;;16.56;67.69
27613;BME280;15036;48.094;-1.690;2023-03-22T10:20:58;100202.06;;;17.10;65.81
27613;BME280;15036;48.094;-1.690;2023-03-22T10:23:53;100203.25;;;16.98;66.44
27613;BME280;15036;48.094;-1.690;2023-03-22T10:28:59;100181.91;;;16.88;67.23
27613;BME280;15036;48.094;-1.690;2023-03-22T10:31:28;100196.28;;;16.90;67.52
27613;BME280;15036;48.094;-1.690;2023-03-22T10:33:59;100176.28;;;17.43;66.31
27613;BME280;15036;48.094;-1.690;2023-03-22T10:36:29;100180.72;;;17.01;67.36
27613;BME280;15036;48.094;-1.690;2023-03-22T10:39:00;100174.63;;;17.20;67.03
27613;BME280;15036;48.094;-1.690;2023-03-22T10:41:28;100158.91;;;16.61;68.50
27613;BME280;15036;48.094;-1.690;2023-03-22T10:43:57;100172.31;;;16.91;68.09
27613;BME280;15036;48.094;-1.690;2023-03-22T10:46:26;100184.09;;;16.86;68.35
27613;BME280;15036;48.094;-1.690;2023-03-22T10:48:57;100170.94;;;16.72;68.55
27613;BME280;15036;48.094;-1.690;2023-03-22T10:53:55;100172.00;;;17.09;67.75
27613;BME280;15036;48.094;-1.690;2023-03-22T10:56:22;100179.38;;;16.65;68.78
27613;BME280;15036;48.094;-1.690;2023-03-22T10:58:49;100177.75;;;17.07;68.05
27613;BME280;15036;48.094;-1.690;2023-03-22T11:01:35;100158.06;;;16.77;68.77
27613;BME280;15036;48.094;-1.690;2023-03-22T11:04:15;100180.91;;;17.16;67.85
27613;BME280;15036;48.094;-1.690;2023-03-22T11:07:12;100162.34;;;16.90;68.24
27613;BME280;15036;48.094;-1.690;2023-03-22T11:09:40;100166.94;;;17.22;68.01
27613;BME280;15036;48.094;-1.690;2023-03-22T11:12:11;100140.50;;;16.83;68.39
27613;BME280;15036;48.094;-1.690;2023-03-22T11:14:43;100169.94;;;16.61;69.33
27613;BME280;15036;48.094;-1.690;2023-03-22T11:17:11;100173.19;;;16.58;69.90
27613;BME280;15036;48.094;-1.690;2023-03-22T11:19:51;100173.78;;;16.98;68.17
27613;BME280;15036;48.094;-1.690;2023-03-22T11:24:45;100178.34;;;17.31;67.32
27613;BME280;15036;48.094;-1.690;2023-03-22T11:27:22;100163.84;;;16.97;68.24
27613;BME280;15036;48.094;-1.690;2023-03-22T11:29:50;100170.63;;;16.90;68.37
27613;BME280;15036;48.094;-1.690;2023-03-22T11:32:31;100180.31;;;17.14;68.00
27613;BME280;15036;48.094;-1.690;2023-03-22T11:37:45;100170.75;;;17.00;68.58
27613;BME280;15036;48.094;-1.690;2023-03-22T11:40:27;100175.94;;;16.96;68.72
27613;BME280;15036;48.094;-1.690;2023-03-22T11:42:55;100176.47;;;16.93;68.83
27613;BME280;15036;48.094;-1.690;2023-03-22T11:45:29;100171.28;;;16.97;69.17
27613;BME280;15036;48.094;-1.690;2023-03-22T11:48:02;100162.31;;;17.06;68.47
27613;BME280;15036;48.094;-1.690;2023-03-22T11:50:31;100151.53;;;17.26;68.20
27613;BME280;15036;48.094;-1.690;2023-03-22T11:53:01;100136.28;;;16.97;68.91
27613;BME280;15036;48.094;-1.690;2023-03-22T11:55:29;100150.44;;;17.27;68.61
27613;BME280;15036;48.094;-1.690;2023-03-22T11:57:57;100134.44;;;17.29;68.50
27613;BME280;15036;48.094;-1.690;2023-03-22T12:00:26;100147.19;;;17.09;69.24
27613;BME280;15036;48.094;-1.690;2023-03-22T12:02:54;100155.00;;;16.95;69.82
27613;BME280;15036;48.094;-1.690;2023-03-22T12:05:25;100137.16;;;17.03;68.70
27613;BME280;15036;48.094;-1.690;2023-03-22T12:07:54;100133.38;;;16.87;69.47
27613;BME280;15036;48.094;-1.690;2023-03-22T12:10:27;100124.19;;;16.82;69.95
27613;BME280;15036;48.094;-1.690;2023-03-22T12:12:58;100121.22;;;16.67;70.30
27613;BME280;15036;48.094;-1.690;2023-03-22T12:15:54;100139.50;;;16.73;70.18
27613;BME280;15036;48.094;-1.690;2023-03-22T12:18:28;100139.91;;;16.81;70.10
27613;BME280;15036;48.094;-1.690;2023-03-22T12:20:58;100139.72;;;17.09;68.83
27613;BME280;15036;48.094;-1.690;2023-03-22T12:23:27;100128.00;;;17.19;69.23
27613;BME280;15036;48.094;-1.690;2023-03-22T12:25:54;100132.81;;;16.85;69.50
27613;BME280;15036;48.094;-1.690;2023-03-22T12:31:39;100117.16;;;17.12;68.73
27613;BME280;15036;48.094;-1.690;2023-03-22T12:34:14;100120.94;;;17.06;68.64
27613;BME280;15036;48.094;-1.690;2023-03-22T12:36:53;100134.31;;;17.63;67.04
27613;BME280;15036;48.094;-1.690;2023-03-22T12:39:24;100127.41;;;17.39;67.73
27613;BME280;15036;48.094;-1.690;2023-03-22T12:41:52;100143.31;;;17.31;67.35
27613;BME280;15036;48.094;-1.690;2023-03-22T12:44:30;100129.28;;;17.33;67.62
27613;BME280;15036;48.094;-1.690;2023-03-22T12:47:00;100118.44;;;17.26;68.06
27613;BME280;15036;48.094;-1.690;2023-03-22T12:49:48;100121.91;;;17.65;66.33
27613;BME280;15036;48.094;-1.690;2023-03-22T12:52:20;100123.91;;;17.70;66.19
27613;BME280;15036;48.094;-1.690;2023-03-22T12:54:49;100114.47;;;17.66;66.29
27613;BME280;15036;48.094;-1.690;2023-03-22T12:57:16;100101.50;;;17.66;66.21
27613;BME280;15036;48.094;-1.690;2023-03-22T12:59:44;100111.97;;;17.64;66.72
27613;BME280;15036;48.094;-1.690;2023-03-22T13:02:18;100108.31;;;17.85;66.25
27613;BME280;15036;48.094;-1.690;2023-03-22T13:07:37;100098.50;;;17.73;67.23
27613;BME280;15036;48.094;-1.690;2023-03-22T13:16:13;100081.88;;;17.41;67.90
27613;BME280;15036;48.094;-1.690;2023-03-22T13:18:56;100082.50;;;17.21;69.17
27613;BME280;15036;48.094;-1.690;2023-03-22T13:21:23;100088.81;;;16.95;70.33
27613;BME280;15036;48.094;-1.690;2023-03-22T13:26:15;100099.28;;;17.42;68.65
27613;BME280;15036;48.094;-1.690;2023-03-22T13:28:43;100085.97;;;17.12;69.66
27613;BME280;15036;48.094;-1.690;2023-03-22T13:31:28;100076.63;;;17.13;69.66
27613;BME280;15036;48.094;-1.690;2023-03-22T13:33:56;100081.06;;;16.92;69.97
27613;BME280;15036;48.094;-1.690;2023-03-22T13:36:25;100051.72;;;17.08;69.52
27613;BME280;15036;48.094;-1.690;2023-03-22T13:38:54;100078.09;;;16.77;71.09
27613;BME280;15036;48.094;-1.690;2023-03-22T13:41:23;100068.94;;;16.72;71.37
27613;BME280;15036;48.094;-1.690;2023-03-22T13:43:57;100070.41;;;17.01;70.37
27613;BME280;15036;48.094;-1.690;2023-03-22T13:59:57;100059.56;;;17.43;69.26
27613;BME280;15036;48.094;-1.690;2023-03-22T14:04:30;100059.66;;;16.99;71.33
27613;BME280;15036;48.094;-1.690;2023-03-22T14:06:59;100052.31;;;17.10;70.10
27613;BME280;15036;48.094;-1.690;2023-03-22T14:09:32;100037.56;;;16.78;71.00